Terminal Aerodrome Forecast
Issued by NWS

Home | Current Version | Previous Version | Text Only | Print | Product List | Glossary On
Versions: 1 2 3 4 5 6 7 8 9 10 11 12 13 14 15 16 17
000
FTUS45 KABQ 312300
TAFTCC
TAF
KTCC 312332Z 0100/0124 06005KT P6SM BKN100
     FM010400 09005KT P6SM VCSH BKN050
     FM010800 03005KT P6SM OVC040
     FM011800 12010KT P6SM BKN040 OVC080=

USA.gov is the U.S. government's official web portal to all federal, state and local government web resources and services.